West Des Moines, Iowa
Current Conditions -  °F | °C
As of 7:30 AM on Friday 19 Dec 2014 (Local Time) from KDSM Reporting Station
Light Snow Light Snow  
Wind Chill: 29°   Ceiling: 4000
Heat Index: 29°   Visibility: 5mi
Dew Point: 25°   Wind: 3mph
Humidity: 85%   Direction: 110°ESE
Pressure: 30.26"   Gusts: NA
Location:  41.57°N, 93.76°W
Report Text: KDSM 191330Z 11003KT 5SM -SN BR SCT018 OVC040 M02/M04 A3026 RMK AO2 SCT V BKN P0000 T10171039
Loading
Personal Weather Stations






























Interactive Weather Map New forecast layout! Learn more

10-Day Weather Forecast

Advertisements
Track Severe Weather on mobile